sensor_id;sensor_type;location;lat;lon;timestamp;P1;durP1;ratioP1;P2;durP2;ratioP2
54923;SDS011;40825;52.270;20.984;2024-03-02T00:00:04;42.50;;;20.60;;
54923;SDS011;40825;52.270;20.984;2024-03-02T00:02:58;42.60;;;20.20;;
54923;SDS011;40825;52.270;20.984;2024-03-02T00:05:24;41.30;;;19.70;;
54923;SDS011;40825;52.270;20.984;2024-03-02T00:07:53;43.40;;;20.40;;
54923;SDS011;40825;52.270;20.984;2024-03-02T00:10:27;40.30;;;20.00;;
54923;SDS011;40825;52.270;20.984;2024-03-02T00:13:00;42.30;;;18.90;;
54923;SDS011;40825;52.270;20.984;2024-03-02T00:15:39;41.40;;;20.20;;
54923;SDS011;40825;52.270;20.984;2024-03-02T00:18:06;40.00;;;19.60;;
54923;SDS011;40825;52.270;20.984;2024-03-02T00:20:32;41.60;;;19.90;;
54923;SDS011;40825;52.270;20.984;2024-03-02T00:23:04;45.20;;;18.90;;
54923;SDS011;40825;52.270;20.984;2024-03-02T00:33:44;40.60;;;18.70;;
54923;SDS011;40825;52.270;20.984;2024-03-02T00:36:12;40.40;;;18.40;;
54923;SDS011;40825;52.270;20.984;2024-03-02T00:41:08;38.10;;;18.00;;
54923;SDS011;40825;52.270;20.984;2024-03-02T00:44:01;38.20;;;18.80;;
54923;SDS011;40825;52.270;20.984;2024-03-02T00:46:29;41.80;;;18.70;;
54923;SDS011;40825;52.270;20.984;2024-03-02T00:48:59;41.00;;;18.60;;
54923;SDS011;40825;52.270;20.984;2024-03-02T00:51:27;42.30;;;21.50;;
54923;SDS011;40825;52.270;20.984;2024-03-02T00:53:55;38.10;;;18.80;;
54923;SDS011;40825;52.270;20.984;2024-03-02T00:56:23;38.80;;;18.70;;
54923;SDS011;40825;52.270;20.984;2024-03-02T00:58:50;44.60;;;19.80;;
54923;SDS011;40825;52.270;20.984;2024-03-02T01:01:15;41.70;;;22.20;;
54923;SDS011;40825;52.270;20.984;2024-03-02T01:03:41;41.10;;;20.50;;
54923;SDS011;40825;52.270;20.984;2024-03-02T01:06:07;39.90;;;18.70;;
54923;SDS011;40825;52.270;20.984;2024-03-02T01:08:34;41.90;;;19.00;;
54923;SDS011;40825;52.270;20.984;2024-03-02T01:11:00;42.30;;;18.30;;
54923;SDS011;40825;52.270;20.984;2024-03-02T01:13:26;42.80;;;19.70;;
54923;SDS011;40825;52.270;20.984;2024-03-02T01:15:51;43.20;;;19.50;;
54923;SDS011;40825;52.270;20.984;2024-03-02T01:18:18;38.50;;;18.80;;
54923;SDS011;40825;52.270;20.984;2024-03-02T01:20:43;38.60;;;19.90;;
54923;SDS011;40825;52.270;20.984;2024-03-02T01:23:09;40.40;;;18.70;;
54923;SDS011;40825;52.270;20.984;2024-03-02T01:25:35;34.90;;;17.50;;
54923;SDS011;40825;52.270;20.984;2024-03-02T01:28:01;43.10;;;20.30;;
54923;SDS011;40825;52.270;20.984;2024-03-02T01:30:26;35.60;;;18.20;;
54923;SDS011;40825;52.270;20.984;2024-03-02T01:32:52;37.00;;;18.60;;
54923;SDS011;40825;52.270;20.984;2024-03-02T01:35:18;38.30;;;19.60;;
54923;SDS011;40825;52.270;20.984;2024-03-02T01:37:43;41.30;;;18.00;;
54923;SDS011;40825;52.270;20.984;2024-03-02T01:40:09;36.10;;;17.20;;
54923;SDS011;40825;52.270;20.984;2024-03-02T01:42:38;38.40;;;18.00;;
54923;SDS011;40825;52.270;20.984;2024-03-02T01:45:05;35.00;;;17.90;;
54923;SDS011;40825;52.270;20.984;2024-03-02T01:47:31;37.70;;;18.10;;
54923;SDS011;40825;52.270;20.984;2024-03-02T01:49:57;40.80;;;19.80;;
54923;SDS011;40825;52.270;20.984;2024-03-02T01:52:24;41.00;;;17.80;;
54923;SDS011;40825;52.270;20.984;2024-03-02T01:54:49;40.70;;;18.80;;
54923;SDS011;40825;52.270;20.984;2024-03-02T01:57:15;36.40;;;18.60;;
54923;SDS011;40825;52.270;20.984;2024-03-02T01:59:41;41.30;;;20.90;;
54923;SDS011;40825;52.270;20.984;2024-03-02T02:02:06;39.30;;;18.90;;
54923;SDS011;40825;52.270;20.984;2024-03-02T02:04:32;38.30;;;19.10;;
54923;SDS011;40825;52.270;20.984;2024-03-02T02:06:58;37.90;;;18.40;;
54923;SDS011;40825;52.270;20.984;2024-03-02T02:09:24;37.90;;;18.60;;
54923;SDS011;40825;52.270;20.984;2024-03-02T02:11:50;36.20;;;17.20;;
54923;SDS011;40825;52.270;20.984;2024-03-02T02:14:17;35.60;;;18.00;;
54923;SDS011;40825;52.270;20.984;2024-03-02T02:16:42;38.20;;;19.30;;
54923;SDS011;40825;52.270;20.984;2024-03-02T02:19:08;35.70;;;17.70;;
54923;SDS011;40825;52.270;20.984;2024-03-02T02:21:34;37.40;;;18.60;;
54923;SDS011;40825;52.270;20.984;2024-03-02T02:24:00;39.40;;;18.10;;
54923;SDS011;40825;52.270;20.984;2024-03-02T02:26:28;39.60;;;17.90;;
54923;SDS011;40825;52.270;20.984;2024-03-02T02:28:53;35.50;;;16.70;;
54923;SDS011;40825;52.270;20.984;2024-03-02T02:31:19;35.20;;;17.60;;
54923;SDS011;40825;52.270;20.984;2024-03-02T02:33:44;38.30;;;19.10;;
54923;SDS011;40825;52.270;20.984;2024-03-02T02:36:10;34.90;;;17.10;;
54923;SDS011;40825;52.270;20.984;2024-03-02T02:38:37;37.50;;;18.20;;
54923;SDS011;40825;52.270;20.984;2024-03-02T02:41:04;36.70;;;18.40;;
54923;SDS011;40825;52.270;20.984;2024-03-02T02:43:29;39.40;;;19.20;;
54923;SDS011;40825;52.270;20.984;2024-03-02T02:45:55;36.90;;;17.60;;
54923;SDS011;40825;52.270;20.984;2024-03-02T02:48:20;34.60;;;17.20;;
54923;SDS011;40825;52.270;20.984;2024-03-02T02:50:46;36.80;;;18.40;;
54923;SDS011;40825;52.270;20.984;2024-03-02T02:53:11;35.90;;;17.30;;
54923;SDS011;40825;52.270;20.984;2024-03-02T02:55:37;39.60;;;18.70;;
54923;SDS011;40825;52.270;20.984;2024-03-02T02:58:06;34.00;;;16.30;;
54923;SDS011;40825;52.270;20.984;2024-03-02T03:00:31;39.10;;;17.70;;
54923;SDS011;40825;52.270;20.984;2024-03-02T03:02:57;35.60;;;19.90;;
54923;SDS011;40825;52.270;20.984;2024-03-02T03:05:23;35.00;;;17.70;;
54923;SDS011;40825;52.270;20.984;2024-03-02T03:07:48;38.80;;;17.90;;
54923;SDS011;40825;52.270;20.984;2024-03-02T03:10:15;36.90;;;17.10;;
54923;SDS011;40825;52.270;20.984;2024-03-02T03:12:42;36.40;;;18.10;;
54923;SDS011;40825;52.270;20.984;2024-03-02T03:15:08;33.80;;;16.90;;
54923;SDS011;40825;52.270;20.984;2024-03-02T03:17:35;34.00;;;17.30;;
54923;SDS011;40825;52.270;20.984;2024-03-02T03:20:02;36.30;;;17.70;;
54923;SDS011;40825;52.270;20.984;2024-03-02T03:22:29;36.60;;;17.20;;
54923;SDS011;40825;52.270;20.984;2024-03-02T03:24:56;35.20;;;16.70;;
54923;SDS011;40825;52.270;20.984;2024-03-02T03:27:22;33.70;;;16.70;;
54923;SDS011;40825;52.270;20.984;2024-03-02T03:29:47;34.40;;;16.90;;
54923;SDS011;40825;52.270;20.984;2024-03-02T03:32:13;36.50;;;17.20;;
54923;SDS011;40825;52.270;20.984;2024-03-02T03:34:39;36.90;;;17.60;;
54923;SDS011;40825;52.270;20.984;2024-03-02T03:37:05;29.40;;;14.40;;
54923;SDS011;40825;52.270;20.984;2024-03-02T03:39:31;33.70;;;16.00;;
54923;SDS011;40825;52.270;20.984;2024-03-02T03:41:59;33.90;;;17.40;;
54923;SDS011;40825;52.270;20.984;2024-03-02T03:44:24;32.30;;;18.10;;
54923;SDS011;40825;52.270;20.984;2024-03-02T03:46:50;37.90;;;16.80;;
54923;SDS011;40825;52.270;20.984;2024-03-02T03:49:15;33.90;;;15.80;;
54923;SDS011;40825;52.270;20.984;2024-03-02T03:51:40;35.10;;;18.20;;
54923;SDS011;40825;52.270;20.984;2024-03-02T03:54:06;33.60;;;16.40;;
54923;SDS011;40825;52.270;20.984;2024-03-02T03:56:31;35.70;;;17.30;;
54923;SDS011;40825;52.270;20.984;2024-03-02T03:58:57;35.00;;;17.10;;
54923;SDS011;40825;52.270;20.984;2024-03-02T04:01:24;41.40;;;18.10;;
54923;SDS011;40825;52.270;20.984;2024-03-02T04:03:50;34.10;;;16.40;;
54923;SDS011;40825;52.270;20.984;2024-03-02T04:06:15;34.40;;;16.80;;
54923;SDS011;40825;52.270;20.984;2024-03-02T04:08:42;37.00;;;17.70;;
54923;SDS011;40825;52.270;20.984;2024-03-02T04:11:08;32.90;;;16.90;;
54923;SDS011;40825;52.270;20.984;2024-03-02T04:13:33;33.40;;;16.70;;
54923;SDS011;40825;52.270;20.984;2024-03-02T04:15:59;35.90;;;16.60;;
54923;SDS011;40825;52.270;20.984;2024-03-02T04:18:25;34.70;;;16.70;;
54923;SDS011;40825;52.270;20.984;2024-03-02T04:20:50;32.60;;;15.70;;
54923;SDS011;40825;52.270;20.984;2024-03-02T04:23:16;33.80;;;16.20;;
54923;SDS011;40825;52.270;20.984;2024-03-02T04:25:41;36.80;;;18.30;;
54923;SDS011;40825;52.270;20.984;2024-03-02T04:28:07;37.70;;;16.80;;
54923;SDS011;40825;52.270;20.984;2024-03-02T04:30:32;35.30;;;15.90;;
54923;SDS011;40825;52.270;20.984;2024-03-02T04:32:58;33.30;;;15.90;;
54923;SDS011;40825;52.270;20.984;2024-03-02T04:35:24;35.20;;;17.50;;
54923;SDS011;40825;52.270;20.984;2024-03-02T04:37:50;41.10;;;17.70;;
54923;SDS011;40825;52.270;20.984;2024-03-02T04:40:16;34.40;;;16.60;;
54923;SDS011;40825;52.270;20.984;2024-03-02T04:42:41;35.10;;;16.30;;
54923;SDS011;40825;52.270;20.984;2024-03-02T04:45:08;36.50;;;16.40;;
54923;SDS011;40825;52.270;20.984;2024-03-02T04:47:34;38.90;;;17.10;;
54923;SDS011;40825;52.270;20.984;2024-03-02T04:49:59;33.80;;;15.60;;
54923;SDS011;40825;52.270;20.984;2024-03-02T04:52:25;36.20;;;16.20;;
54923;SDS011;40825;52.270;20.984;2024-03-02T04:54:50;36.20;;;16.50;;
54923;SDS011;40825;52.270;20.984;2024-03-02T04:57:35;36.70;;;16.80;;
54923;SDS011;40825;52.270;20.984;2024-03-02T05:00:01;34.70;;;16.40;;
54923;SDS011;40825;52.270;20.984;2024-03-02T05:02:27;34.90;;;16.60;;
54923;SDS011;40825;52.270;20.984;2024-03-02T05:04:52;39.40;;;17.40;;
54923;SDS011;40825;52.270;20.984;2024-03-02T05:07:18;37.90;;;16.70;;
54923;SDS011;40825;52.270;20.984;2024-03-02T05:09:43;35.30;;;15.90;;
54923;SDS011;40825;52.270;20.984;2024-03-02T05:12:09;32.50;;;15.80;;
54923;SDS011;40825;52.270;20.984;2024-03-02T05:14:41;36.80;;;16.50;;
54923;SDS011;40825;52.270;20.984;2024-03-02T05:17:06;36.70;;;16.50;;
54923;SDS011;40825;52.270;20.984;2024-03-02T05:19:31;38.30;;;16.60;;
54923;SDS011;40825;52.270;20.984;2024-03-02T05:21:57;35.20;;;16.80;;
54923;SDS011;40825;52.270;20.984;2024-03-02T05:24:23;34.00;;;15.80;;
54923;SDS011;40825;52.270;20.984;2024-03-02T05:26:48;33.00;;;15.80;;
54923;SDS011;40825;52.270;20.984;2024-03-02T05:29:14;36.10;;;16.60;;
54923;SDS011;40825;52.270;20.984;2024-03-02T05:31:40;36.80;;;15.80;;
54923;SDS011;40825;52.270;20.984;2024-03-02T05:34:05;39.10;;;16.80;;
54923;SDS011;40825;52.270;20.984;2024-03-02T05:36:31;33.60;;;15.80;;
54923;SDS011;40825;52.270;20.984;2024-03-02T05:38:57;33.60;;;15.40;;
54923;SDS011;40825;52.270;20.984;2024-03-02T05:41:22;34.40;;;16.00;;
54923;SDS011;40825;52.270;20.984;2024-03-02T05:43:48;35.30;;;16.40;;
54923;SDS011;40825;52.270;20.984;2024-03-02T05:46:14;37.80;;;16.20;;
54923;SDS011;40825;52.270;20.984;2024-03-02T05:48:40;33.00;;;15.10;;
54923;SDS011;40825;52.270;20.984;2024-03-02T05:51:05;34.50;;;15.90;;
54923;SDS011;40825;52.270;20.984;2024-03-02T05:53:31;37.50;;;16.70;;
54923;SDS011;40825;52.270;20.984;2024-03-02T05:55:56;32.70;;;15.60;;
54923;SDS011;40825;52.270;20.984;2024-03-02T05:58:22;34.80;;;15.50;;
54923;SDS011;40825;52.270;20.984;2024-03-02T06:01:02;32.40;;;16.50;;
54923;SDS011;40825;52.270;20.984;2024-03-02T06:03:28;34.90;;;15.30;;
54923;SDS011;40825;52.270;20.984;2024-03-02T06:05:54;37.40;;;17.30;;
54923;SDS011;40825;52.270;20.984;2024-03-02T06:08:20;35.60;;;16.80;;
54923;SDS011;40825;52.270;20.984;2024-03-02T06:10:45;42.70;;;18.00;;
54923;SDS011;40825;52.270;20.984;2024-03-02T06:13:11;39.80;;;17.50;;
54923;SDS011;40825;52.270;20.984;2024-03-02T06:15:36;34.80;;;16.90;;
54923;SDS011;40825;52.270;20.984;2024-03-02T06:18:02;35.80;;;16.10;;
54923;SDS011;40825;52.270;20.984;2024-03-02T06:20:28;35.60;;;15.40;;
54923;SDS011;40825;52.270;20.984;2024-03-02T06:22:56;37.00;;;19.20;;
54923;SDS011;40825;52.270;20.984;2024-03-02T06:25:21;35.20;;;17.30;;
54923;SDS011;40825;52.270;20.984;2024-03-02T06:27:46;33.60;;;17.00;;
54923;SDS011;40825;52.270;20.984;2024-03-02T06:30:12;36.30;;;16.60;;
54923;SDS011;40825;52.270;20.984;2024-03-02T06:32:38;38.70;;;17.40;;
54923;SDS011;40825;52.270;20.984;2024-03-02T06:35:03;34.00;;;17.70;;
54923;SDS011;40825;52.270;20.984;2024-03-02T06:37:31;33.50;;;15.70;;
54923;SDS011;40825;52.270;20.984;2024-03-02T06:39:56;32.80;;;15.30;;
54923;SDS011;40825;52.270;20.984;2024-03-02T06:42:22;34.10;;;16.40;;
54923;SDS011;40825;52.270;20.984;2024-03-02T06:44:48;31.60;;;14.20;;
54923;SDS011;40825;52.270;20.984;2024-03-02T06:47:13;31.80;;;14.70;;
54923;SDS011;40825;52.270;20.984;2024-03-02T06:49:42;32.70;;;15.20;;
54923;SDS011;40825;52.270;20.984;2024-03-02T06:52:07;33.40;;;15.20;;
54923;SDS011;40825;52.270;20.984;2024-03-02T06:54:33;30.20;;;14.00;;
54923;SDS011;40825;52.270;20.984;2024-03-02T06:57:00;30.30;;;13.30;;
54923;SDS011;40825;52.270;20.984;2024-03-02T06:59:26;31.00;;;14.30;;
54923;SDS011;40825;52.270;20.984;2024-03-02T07:01:51;36.90;;;15.70;;
54923;SDS011;40825;52.270;20.984;2024-03-02T07:04:17;32.10;;;13.70;;
54923;SDS011;40825;52.270;20.984;2024-03-02T07:06:42;28.80;;;13.50;;
54923;SDS011;40825;52.270;20.984;2024-03-02T07:09:08;29.80;;;13.60;;
54923;SDS011;40825;52.270;20.984;2024-03-02T07:11:36;30.10;;;13.90;;
54923;SDS011;40825;52.270;20.984;2024-03-02T07:14:01;31.50;;;15.00;;
54923;SDS011;40825;52.270;20.984;2024-03-02T07:16:27;30.10;;;13.50;;
54923;SDS011;40825;52.270;20.984;2024-03-02T07:18:55;31.10;;;14.70;;
54923;SDS011;40825;52.270;20.984;2024-03-02T07:21:22;28.40;;;12.50;;
54923;SDS011;40825;52.270;20.984;2024-03-02T07:23:48;31.70;;;14.10;;
54923;SDS011;40825;52.270;20.984;2024-03-02T07:26:14;33.00;;;15.10;;
54923;SDS011;40825;52.270;20.984;2024-03-02T07:28:44;31.70;;;14.60;;
54923;SDS011;40825;52.270;20.984;2024-03-02T07:31:11;35.90;;;15.40;;
54923;SDS011;40825;52.270;20.984;2024-03-02T07:33:36;35.20;;;15.10;;
54923;SDS011;40825;52.270;20.984;2024-03-02T07:36:02;32.10;;;15.00;;
54923;SDS011;40825;52.270;20.984;2024-03-02T07:38:28;34.20;;;14.50;;
54923;SDS011;40825;52.270;20.984;2024-03-02T07:40:54;33.40;;;15.10;;
54923;SDS011;40825;52.270;20.984;2024-03-02T07:43:20;33.30;;;15.70;;
54923;SDS011;40825;52.270;20.984;2024-03-02T07:45:47;31.30;;;15.30;;
54923;SDS011;40825;52.270;20.984;2024-03-02T07:48:17;32.30;;;15.50;;
54923;SDS011;40825;52.270;20.984;2024-03-02T07:50:42;34.20;;;14.60;;
54923;SDS011;40825;52.270;20.984;2024-03-02T07:53:08;32.60;;;15.70;;
54923;SDS011;40825;52.270;20.984;2024-03-02T07:55:34;31.50;;;13.20;;
54923;SDS011;40825;52.270;20.984;2024-03-02T07:58:00;33.90;;;13.80;;
54923;SDS011;40825;52.270;20.984;2024-03-02T08:00:26;29.90;;;13.00;;
54923;SDS011;40825;52.270;20.984;2024-03-02T08:02:53;28.10;;;13.80;;
54923;SDS011;40825;52.270;20.984;2024-03-02T08:05:19;31.30;;;12.80;;
54923;SDS011;40825;52.270;20.984;2024-03-02T08:07:46;28.60;;;13.20;;
54923;SDS011;40825;52.270;20.984;2024-03-02T08:10:12;29.90;;;13.10;;
54923;SDS011;40825;52.270;20.984;2024-03-02T08:12:37;27.60;;;12.00;;
54923;SDS011;40825;52.270;20.984;2024-03-02T08:15:03;28.40;;;12.30;;
54923;SDS011;40825;52.270;20.984;2024-03-02T08:17:29;30.30;;;13.70;;
54923;SDS011;40825;52.270;20.984;2024-03-02T08:19:55;31.40;;;14.30;;
54923;SDS011;40825;52.270;20.984;2024-03-02T08:22:21;30.80;;;13.90;;
54923;SDS011;40825;52.270;20.984;2024-03-02T08:24:48;31.50;;;13.60;;
54923;SDS011;40825;52.270;20.984;2024-03-02T08:27:13;29.70;;;14.40;;
54923;SDS011;40825;52.270;20.984;2024-03-02T08:29:39;27.00;;;13.20;;
54923;SDS011;40825;52.270;20.984;2024-03-02T08:32:06;27.90;;;13.70;;
54923;SDS011;40825;52.270;20.984;2024-03-02T08:34:32;31.80;;;12.50;;
54923;SDS011;40825;52.270;20.984;2024-03-02T08:36:59;31.70;;;14.20;;
54923;SDS011;40825;52.270;20.984;2024-03-02T08:39:24;27.90;;;12.80;;
54923;SDS011;40825;52.270;20.984;2024-03-02T08:41:50;29.70;;;13.50;;
54923;SDS011;40825;52.270;20.984;2024-03-02T08:44:16;29.80;;;13.00;;
54923;SDS011;40825;52.270;20.984;2024-03-02T08:46:41;30.30;;;12.40;;
54923;SDS011;40825;52.270;20.984;2024-03-02T08:49:07;27.90;;;13.50;;
54923;SDS011;40825;52.270;20.984;2024-03-02T08:51:33;27.20;;;12.60;;
54923;SDS011;40825;52.270;20.984;2024-03-02T08:53:59;29.30;;;12.70;;
54923;SDS011;40825;52.270;20.984;2024-03-02T08:56:24;29.20;;;13.00;;
54923;SDS011;40825;52.270;20.984;2024-03-02T08:58:50;29.50;;;13.10;;
54923;SDS011;40825;52.270;20.984;2024-03-02T09:01:17;29.50;;;12.40;;
54923;SDS011;40825;52.270;20.984;2024-03-02T09:03:43;24.60;;;12.60;;
54923;SDS011;40825;52.270;20.984;2024-03-02T09:06:12;31.30;;;15.00;;
54923;SDS011;40825;52.270;20.984;2024-03-02T09:08:38;31.20;;;14.20;;
54923;SDS011;40825;52.270;20.984;2024-03-02T09:11:08;31.00;;;13.20;;
54923;SDS011;40825;52.270;20.984;2024-03-02T09:13:35;29.10;;;13.40;;
54923;SDS011;40825;52.270;20.984;2024-03-02T09:16:01;32.00;;;13.90;;
54923;SDS011;40825;52.270;20.984;2024-03-02T09:18:27;27.40;;;12.20;;
54923;SDS011;40825;52.270;20.984;2024-03-02T09:20:53;26.50;;;12.30;;
54923;SDS011;40825;52.270;20.984;2024-03-02T09:23:18;26.80;;;12.00;;
54923;SDS011;40825;52.270;20.984;2024-03-02T09:25:44;25.80;;;12.00;;
54923;SDS011;40825;52.270;20.984;2024-03-02T09:28:10;28.10;;;12.50;;
54923;SDS011;40825;52.270;20.984;2024-03-02T09:30:36;28.30;;;13.00;;
54923;SDS011;40825;52.270;20.984;2024-03-02T09:33:01;30.30;;;14.40;;
54923;SDS011;40825;52.270;20.984;2024-03-02T09:35:27;28.20;;;12.90;;
54923;SDS011;40825;52.270;20.984;2024-03-02T09:37:52;28.50;;;12.70;;
54923;SDS011;40825;52.270;20.984;2024-03-02T09:40:20;26.60;;;12.80;;
54923;SDS011;40825;52.270;20.984;2024-03-02T09:42:47;30.20;;;12.60;;
54923;SDS011;40825;52.270;20.984;2024-03-02T09:45:24;31.70;;;13.10;;
54923;SDS011;40825;52.270;20.984;2024-03-02T09:47:51;29.00;;;13.00;;
54923;SDS011;40825;52.270;20.984;2024-03-02T09:50:17;30.20;;;12.80;;
54923;SDS011;40825;52.270;20.984;2024-03-02T09:52:43;30.40;;;14.00;;
54923;SDS011;40825;52.270;20.984;2024-03-02T09:55:09;29.20;;;13.10;;
54923;SDS011;40825;52.270;20.984;2024-03-02T09:57:35;29.40;;;12.90;;
54923;SDS011;40825;52.270;20.984;2024-03-02T10:00:00;30.20;;;13.20;;
54923;SDS011;40825;52.270;20.984;2024-03-02T10:02:26;30.60;;;15.20;;
54923;SDS011;40825;52.270;20.984;2024-03-02T10:04:51;31.50;;;13.60;;
54923;SDS011;40825;52.270;20.984;2024-03-02T10:07:17;30.40;;;13.40;;
54923;SDS011;40825;52.270;20.984;2024-03-02T10:09:45;28.70;;;13.30;;
54923;SDS011;40825;52.270;20.984;2024-03-02T10:12:12;27.50;;;13.10;;
54923;SDS011;40825;52.270;20.984;2024-03-02T10:14:40;29.50;;;13.90;;
54923;SDS011;40825;52.270;20.984;2024-03-02T10:17:17;25.70;;;13.40;;
54923;SDS011;40825;52.270;20.984;2024-03-02T10:19:43;30.10;;;13.70;;
54923;SDS011;40825;52.270;20.984;2024-03-02T10:22:09;28.20;;;12.80;;
54923;SDS011;40825;52.270;20.984;2024-03-02T10:24:44;30.20;;;14.10;;
54923;SDS011;40825;52.270;20.984;2024-03-02T10:27:14;31.10;;;12.90;;
54923;SDS011;40825;52.270;20.984;2024-03-02T10:29:41;33.00;;;13.80;;
54923;SDS011;40825;52.270;20.984;2024-03-02T10:32:11;27.70;;;13.00;;
54923;SDS011;40825;52.270;20.984;2024-03-02T10:34:40;27.40;;;12.50;;
54923;SDS011;40825;52.270;20.984;2024-03-02T10:37:06;29.70;;;14.20;;
54923;SDS011;40825;52.270;20.984;2024-03-02T10:42:05;27.60;;;12.80;;
54923;SDS011;40825;52.270;20.984;2024-03-02T10:44:31;26.00;;;11.60;;
54923;SDS011;40825;52.270;20.984;2024-03-02T10:47:02;29.90;;;13.70;;
54923;SDS011;40825;52.270;20.984;2024-03-02T10:49:30;28.50;;;12.50;;
54923;SDS011;40825;52.270;20.984;2024-03-02T10:51:58;26.50;;;13.50;;
54923;SDS011;40825;52.270;20.984;2024-03-02T10:54:24;25.00;;;12.20;;
54923;SDS011;40825;52.270;20.984;2024-03-02T10:57:01;24.80;;;12.10;;
54923;SDS011;40825;52.270;20.984;2024-03-02T10:59:33;31.00;;;14.30;;
54923;SDS011;40825;52.270;20.984;2024-03-02T11:02:01;25.60;;;12.30;;
54923;SDS011;40825;52.270;20.984;2024-03-02T11:04:28;25.80;;;12.90;;
54923;SDS011;40825;52.270;20.984;2024-03-02T11:06:59;29.10;;;13.10;;
54923;SDS011;40825;52.270;20.984;2024-03-02T11:09:28;35.00;;;16.70;;
54923;SDS011;40825;52.270;20.984;2024-03-02T11:12:05;33.50;;;15.30;;
54923;SDS011;40825;52.270;20.984;2024-03-02T11:14:37;27.40;;;13.10;;
54923;SDS011;40825;52.270;20.984;2024-03-02T11:17:08;26.50;;;13.10;;
54923;SDS011;40825;52.270;20.984;2024-03-02T11:19:34;28.20;;;13.00;;
54923;SDS011;40825;52.270;20.984;2024-03-02T11:22:02;30.70;;;13.60;;
54923;SDS011;40825;52.270;20.984;2024-03-02T11:24:29;27.10;;;13.00;;
54923;SDS011;40825;52.270;20.984;2024-03-02T11:27:01;28.20;;;13.70;;
54923;SDS011;40825;52.270;20.984;2024-03-02T11:32:04;27.40;;;13.60;;
54923;SDS011;40825;52.270;20.984;2024-03-02T11:34:44;26.60;;;14.40;;
54923;SDS011;40825;52.270;20.984;2024-03-02T11:37:12;26.40;;;13.60;;
54923;SDS011;40825;52.270;20.984;2024-03-02T11:39:39;28.40;;;13.90;;
54923;SDS011;40825;52.270;20.984;2024-03-02T11:42:07;29.60;;;14.00;;
54923;SDS011;40825;52.270;20.984;2024-03-02T11:44:37;31.40;;;14.30;;
54923;SDS011;40825;52.270;20.984;2024-03-02T11:47:07;31.20;;;15.70;;
54923;SDS011;40825;52.270;20.984;2024-03-02T11:52:15;31.10;;;15.50;;
54923;SDS011;40825;52.270;20.984;2024-03-02T11:54:44;31.80;;;16.90;;
54923;SDS011;40825;52.270;20.984;2024-03-02T11:57:15;34.70;;;16.10;;
54923;SDS011;40825;52.270;20.984;2024-03-02T11:59:42;35.50;;;16.60;;
54923;SDS011;40825;52.270;20.984;2024-03-02T12:02:16;32.00;;;16.40;;
54923;SDS011;40825;52.270;20.984;2024-03-02T12:04:43;34.60;;;17.10;;
54923;SDS011;40825;52.270;20.984;2024-03-02T12:07:10;35.80;;;18.20;;
54923;SDS011;40825;52.270;20.984;2024-03-02T12:09:36;38.50;;;19.00;;
54923;SDS011;40825;52.270;20.984;2024-03-02T12:12:02;38.30;;;18.90;;
54923;SDS011;40825;52.270;20.984;2024-03-02T12:14:29;40.80;;;18.40;;
54923;SDS011;40825;52.270;20.984;2024-03-02T12:16:55;35.40;;;18.30;;
54923;SDS011;40825;52.270;20.984;2024-03-02T12:19:21;41.60;;;19.60;;
54923;SDS011;40825;52.270;20.984;2024-03-02T12:21:47;39.70;;;19.30;;
54923;SDS011;40825;52.270;20.984;2024-03-02T12:24:12;35.80;;;18.60;;
54923;SDS011;40825;52.270;20.984;2024-03-02T12:26:38;36.40;;;18.80;;
54923;SDS011;40825;52.270;20.984;2024-03-02T12:29:04;33.90;;;17.70;;
54923;SDS011;40825;52.270;20.984;2024-03-02T12:31:30;40.00;;;20.00;;
54923;SDS011;40825;52.270;20.984;2024-03-02T12:33:56;39.40;;;19.00;;
54923;SDS011;40825;52.270;20.984;2024-03-02T12:36:21;35.50;;;18.40;;
54923;SDS011;40825;52.270;20.984;2024-03-02T12:38:47;38.60;;;20.80;;
54923;SDS011;40825;52.270;20.984;2024-03-02T12:41:16;39.00;;;18.70;;
54923;SDS011;40825;52.270;20.984;2024-03-02T12:43:42;40.60;;;19.00;;
54923;SDS011;40825;52.270;20.984;2024-03-02T12:46:07;37.70;;;19.50;;
54923;SDS011;40825;52.270;20.984;2024-03-02T12:48:33;43.10;;;18.70;;
54923;SDS011;40825;52.270;20.984;2024-03-02T12:51:00;38.00;;;19.40;;
54923;SDS011;40825;52.270;20.984;2024-03-02T12:53:25;35.10;;;18.60;;
54923;SDS011;40825;52.270;20.984;2024-03-02T12:55:51;38.60;;;19.30;;
54923;SDS011;40825;52.270;20.984;2024-03-02T12:58:20;35.10;;;18.30;;
54923;SDS011;40825;52.270;20.984;2024-03-02T13:00:48;36.30;;;18.00;;
54923;SDS011;40825;52.270;20.984;2024-03-02T13:03:14;35.90;;;21.00;;
54923;SDS011;40825;52.270;20.984;2024-03-02T13:05:40;34.80;;;19.50;;
54923;SDS011;40825;52.270;20.984;2024-03-02T13:08:06;35.60;;;18.80;;
54923;SDS011;40825;52.270;20.984;2024-03-02T13:10:32;35.10;;;17.60;;
54923;SDS011;40825;52.270;20.984;2024-03-02T13:12:58;37.50;;;18.90;;
54923;SDS011;40825;52.270;20.984;2024-03-02T13:15:26;35.50;;;19.80;;
54923;SDS011;40825;52.270;20.984;2024-03-02T13:17:52;39.20;;;18.60;;
54923;SDS011;40825;52.270;20.984;2024-03-02T13:20:18;32.40;;;19.10;;
54923;SDS011;40825;52.270;20.984;2024-03-02T13:22:45;37.10;;;17.80;;
54923;SDS011;40825;52.270;20.984;2024-03-02T13:25:11;36.30;;;18.90;;
54923;SDS011;40825;52.270;20.984;2024-03-02T13:27:36;36.80;;;19.10;;
54923;SDS011;40825;52.270;20.984;2024-03-02T13:30:03;35.80;;;18.10;;
54923;SDS011;40825;52.270;20.984;2024-03-02T13:32:32;36.80;;;19.90;;
54923;SDS011;40825;52.270;20.984;2024-03-02T13:34:57;34.40;;;18.00;;
54923;SDS011;40825;52.270;20.984;2024-03-02T13:37:23;33.90;;;18.80;;
54923;SDS011;40825;52.270;20.984;2024-03-02T13:39:48;31.70;;;18.60;;
54923;SDS011;40825;52.270;20.984;2024-03-02T13:42:14;35.40;;;19.70;;
54923;SDS011;40825;52.270;20.984;2024-03-02T13:44:40;39.90;;;20.40;;
54923;SDS011;40825;52.270;20.984;2024-03-02T13:47:10;40.20;;;19.30;;
54923;SDS011;40825;52.270;20.984;2024-03-02T13:49:36;35.50;;;19.00;;
54923;SDS011;40825;52.270;20.984;2024-03-02T13:52:03;35.70;;;19.60;;
54923;SDS011;40825;52.270;20.984;2024-03-02T13:54:42;38.50;;;21.40;;
54923;SDS011;40825;52.270;20.984;2024-03-02T13:57:10;36.30;;;19.40;;
54923;SDS011;40825;52.270;20.984;2024-03-02T13:59:37;40.80;;;20.10;;
54923;SDS011;40825;52.270;20.984;2024-03-02T14:02:06;33.70;;;18.80;;
54923;SDS011;40825;52.270;20.984;2024-03-02T14:04:34;36.30;;;21.10;;
54923;SDS011;40825;52.270;20.984;2024-03-02T14:07:00;39.00;;;20.60;;
54923;SDS011;40825;52.270;20.984;2024-03-02T14:09:26;39.50;;;20.50;;
54923;SDS011;40825;52.270;20.984;2024-03-02T14:11:52;36.50;;;18.50;;
54923;SDS011;40825;52.270;20.984;2024-03-02T14:14:18;36.90;;;19.70;;
54923;SDS011;40825;52.270;20.984;2024-03-02T14:16:44;39.10;;;20.20;;
54923;SDS011;40825;52.270;20.984;2024-03-02T14:19:10;34.90;;;19.10;;
54923;SDS011;40825;52.270;20.984;2024-03-02T14:21:39;36.20;;;19.90;;
54923;SDS011;40825;52.270;20.984;2024-03-02T14:24:05;36.20;;;19.30;;